Time;durP1;ratioP1;P1;durP2;ratioP2;P2;SDS_P1;SDS_P2;PMS_P1;PMS_P2;Temp;Humidity;BMP_temperature;BMP_pressure;BME280_temperature;BME280_humidity;BME280_pressure;Samples;Min_cycle;Max_cycle;Signal;HPM_P1;HPM_P2
2021/06/17 00:00:17;;;;;;;0.38;0.38;;;19.50;77.50;;;;;;5053064;28;20828;-69
2021/06/17 00:02:47;;;;;;;0.50;0.50;;;19.40;77.70;;;;;;5071225;28;20044;-69
2021/06/17 00:05:18;;;;;;;0.50;0.50;;;19.50;77.20;;;;;;5071018;28;20049;-69
2021/06/17 00:07:45;;;;;;;;;;;19.50;76.80;;;;;;5063355;28;20135;-69
2021/06/17 00:10:32;;;;;;;0.60;0.60;;;19.40;77.30;;;;;;5045462;28;19981;-69
2021/06/17 00:13:07;;;;;;;0.40;0.40;;;19.40;77.20;;;;;;5068055;28;20045;-69
2021/06/17 00:15:34;;;;;;;0.60;0.60;;;19.40;77.40;;;;;;5068132;28;20439;-69
2021/06/17 00:18:01;;;;;;;0.40;0.40;;;19.40;77.30;;;;;;5070922;28;20044;-69
2021/06/17 00:20:29;;;;;;;0.50;0.50;;;19.50;76.60;;;;;;5071458;28;20052;-69
2021/06/17 00:22:56;;;;;;;0.45;0.45;;;19.50;76.30;;;;;;5074890;28;20129;-69
2021/06/17 00:25:23;;;;;;;0.52;0.52;;;19.40;77.20;;;;;;5074744;28;20101;-69
2021/06/17 00:27:49;;;;;;;0.55;0.55;;;19.40;77.20;;;;;;5075265;28;20613;-69
2021/06/17 00:30:17;;;;;;;0.55;0.55;;;19.50;76.70;;;;;;5056138;28;20053;-67
2021/06/17 00:32:44;;;;;;;0.60;0.60;;;19.50;76.40;;;;;;5065662;28;20052;-67
2021/06/17 00:35:11;;;;;;;0.55;0.55;;;19.40;76.50;;;;;;5063316;28;20194;-69
2021/06/17 00:37:38;;;;;;;0.60;0.60;;;19.50;76.70;;;;;;5066800;28;20045;-69
2021/06/17 00:40:08;;;;;;;0.60;0.60;;;19.50;76.40;;;;;;5073154;28;20045;-69
2021/06/17 00:42:36;;;;;;;0.45;0.45;;;19.50;76.30;;;;;;5074948;28;20055;-69
2021/06/17 00:45:07;;;;;;;0.80;0.80;;;19.40;76.70;;;;;;5074659;28;20052;-69
2021/06/17 00:47:33;;;;;;;0.60;0.60;;;19.40;76.90;;;;;;5074391;28;20036;-69
2021/06/17 00:50:00;;;;;;;0.68;0.68;;;19.20;77.40;;;;;;5074076;28;20048;-69
2021/06/17 00:52:26;;;;;;;0.55;0.55;;;19.30;77.60;;;;;;5074773;28;20487;-69
2021/06/17 00:54:57;;;;;;;0.73;0.73;;;19.40;77.00;;;;;;5074306;28;20044;-69
2021/06/17 00:57:24;;;;;;;0.60;0.60;;;19.40;77.00;;;;;;5074319;28;20503;-69
2021/06/17 00:59:50;;;;;;;0.65;0.65;;;19.40;77.00;;;;;;5074654;28;20056;-69
2021/06/17 01:02:17;;;;;;;0.60;0.60;;;19.50;76.60;;;;;;5063402;28;20500;-69
2021/06/17 01:04:44;;;;;;;0.80;0.80;;;19.40;76.90;;;;;;5071037;28;20041;-67
2021/06/17 01:07:23;;;;;;;0.60;0.60;;;19.40;77.20;;;;;;5074195;28;20052;-69
2021/06/17 01:10:09;;;;;;;0.57;0.57;;;19.40;77.30;;;;;;5074260;28;20123;-69
2021/06/17 01:12:55;;;;;;;0.63;0.63;;;19.40;77.30;;;;;;5056433;28;20052;-69
2021/06/17 01:15:22;;;;;;;0.60;0.60;;;19.40;77.30;;;;;;5050084;28;20088;-69
2021/06/17 01:18:02;;;;;;;0.70;0.70;;;19.40;77.30;;;;;;5074066;28;20496;-69
2021/06/17 01:20:56;;;;;;;0.67;0.67;;;19.30;77.60;;;;;;5074250;28;20056;-69
2021/06/17 01:23:49;;;;;;;0.77;0.77;;;19.40;77.80;;;;;;5053695;28;21063;-69
2021/06/17 01:26:49;;;;;;;0.65;0.65;;;19.40;77.30;;;;;;5073639;28;20346;-69
2021/06/17 01:29:23;;;;;;;0.75;0.75;;;19.30;78.00;;;;;;5067256;28;20051;-68
2021/06/17 01:31:51;;;;;;;0.60;0.60;;;19.40;77.50;;;;;;5073501;28;20080;-68
2021/06/17 01:34:20;;;;;;;0.80;0.80;;;19.40;77.20;;;;;;5063772;28;20045;-68
2021/06/17 01:36:54;;;;;;;0.63;0.63;;;19.30;77.80;;;;;;5073027;28;20063;-69
2021/06/17 01:39:21;;;;;;;0.75;0.75;;;19.30;78.10;;;;;;5073463;28;20049;-69
2021/06/17 01:41:49;;;;;;;0.57;0.57;;;19.30;77.40;;;;;;5073594;28;20055;-69
2021/06/17 01:44:20;;;;;;;0.60;0.60;;;19.30;77.60;;;;;;5073647;28;20049;-69
2021/06/17 01:46:48;;;;;;;0.50;0.50;;;19.30;77.80;;;;;;5073503;28;20120;-69
2021/06/17 01:49:15;;;;;;;0.60;0.60;;;19.30;77.60;;;;;;5073790;28;20048;-69
2021/06/17 01:51:43;;;;;;;0.50;0.50;;;19.30;77.40;;;;;;5073385;28;20594;-68
2021/06/17 01:54:20;;;;;;;0.60;0.60;;;19.20;78.00;;;;;;5067541;28;20049;-69
2021/06/17 01:56:52;;;;;;;0.75;0.75;;;19.20;78.10;;;;;;5065273;28;20428;-69
2021/06/17 01:59:20;;;;;;;0.52;0.52;;;19.30;77.60;;;;;;5073357;28;20055;-69
2021/06/17 02:01:48;;;;;;;0.70;0.70;;;19.30;77.40;;;;;;5069620;28;20056;-67
2021/06/17 02:04:19;;;;;;;0.80;0.60;;;19.40;77.30;;;;;;5073225;28;20113;-69
2021/06/17 02:06:46;;;;;;;0.80;0.80;;;19.30;77.10;;;;;;5072641;28;20082;-67
2021/06/17 02:09:13;;;;;;;0.63;0.63;;;19.40;76.40;;;;;;5073334;28;20041;-69
2021/06/17 02:11:40;;;;;;;0.60;0.60;;;19.40;76.60;;;;;;5073204;28;20432;-69
2021/06/17 02:14:10;;;;;;;0.68;0.68;;;19.30;76.90;;;;;;5065481;28;20056;-69
2021/06/17 02:16:41;;;;;;;0.70;0.70;;;19.30;77.10;;;;;;5073172;28;20135;-69
2021/06/17 02:19:08;;;;;;;0.65;0.65;;;19.30;77.40;;;;;;5072699;28;20105;-69
2021/06/17 02:21:35;;;;;;;0.55;0.55;;;19.20;77.10;;;;;;5068598;28;20048;-69
2021/06/17 02:24:04;;;;;;;0.68;0.68;;;19.20;77.90;;;;;;5065302;28;20048;-69
2021/06/17 02:26:31;;;;;;;0.50;0.50;;;19.20;78.10;;;;;;5072725;28;20040;-68
2021/06/17 02:29:00;;;;;;;0.70;0.70;;;19.10;78.00;;;;;;5072612;28;20040;-69
2021/06/17 02:31:30;;;;;;;0.68;0.68;;;19.10;78.00;;;;;;5071980;28;20048;-69
2021/06/17 02:33:57;;;;;;;0.70;0.70;;;19.20;77.70;;;;;;5065841;28;20516;-69
2021/06/17 02:36:25;;;;;;;0.75;0.75;;;19.10;77.90;;;;;;5068465;28;20447;-69
2021/06/17 02:38:58;;;;;;;0.80;0.80;;;19.10;78.20;;;;;;5072930;28;20056;-68
2021/06/17 02:41:26;;;;;;;1.10;1.00;;;19.00;78.40;;;;;;5059689;28;20499;-69
2021/06/17 02:43:56;;;;;;;0.82;0.82;;;18.90;78.90;;;;;;5072663;28;20044;-69
2021/06/17 02:46:23;;;;;;;0.60;0.60;;;18.90;79.00;;;;;;5059930;28;20044;-69
2021/06/17 02:48:54;;;;;;;0.60;0.60;;;18.90;78.40;;;;;;5072277;28;20052;-68
2021/06/17 02:51:21;;;;;;;0.70;0.70;;;18.90;78.60;;;;;;5071925;28;20056;-69
2021/06/17 02:53:49;;;;;;;0.50;0.50;;;18.80;79.10;;;;;;5072408;28;20049;-69
2021/06/17 02:56:43;;;;;;;0.93;0.73;;;18.80;79.50;;;;;;5072269;28;20056;-69
2021/06/17 02:59:14;;;;;;;0.60;0.60;;;18.80;79.40;;;;;;5048106;28;20048;-69
2021/06/17 03:02:08;;;;;;;0.80;0.80;;;18.80;79.40;;;;;;5071974;28;20059;-69
2021/06/17 03:04:45;;;;;;;0.80;0.80;;;18.90;78.70;;;;;;5071762;28;20044;-69
2021/06/17 03:07:25;;;;;;;0.60;0.60;;;19.00;78.40;;;;;;5072062;28;20422;-69
2021/06/17 03:09:58;;;;;;;;;;;18.90;78.90;;;;;;5072552;28;20123;-69
2021/06/17 03:12:26;;;;;;;0.70;0.70;;;18.80;79.40;;;;;;5071814;28;20011;-69
2021/06/17 03:14:59;;;;;;;0.60;0.60;;;18.70;79.50;;;;;;5064017;28;20182;-69
2021/06/17 03:17:27;;;;;;;0.80;0.60;;;18.70;79.40;;;;;;5071589;28;20048;-69
2021/06/17 03:19:56;;;;;;;0.70;0.70;;;18.80;79.20;;;;;;5071689;28;20052;-69
2021/06/17 03:22:25;;;;;;;0.70;0.70;;;18.60;79.60;;;;;;5071632;28;20053;-69
2021/06/17 03:24:57;;;;;;;0.70;0.70;;;18.60;79.70;;;;;;5065393;28;20045;-69
2021/06/17 03:27:25;;;;;;;0.63;0.63;;;18.60;80.00;;;;;;5066947;28;20166;-69
2021/06/17 03:29:52;;;;;;;0.82;0.57;;;18.70;79.40;;;;;;5071805;28;20115;-69
2021/06/17 03:32:21;;;;;;;0.50;0.50;;;18.70;79.60;;;;;;5053690;28;20538;-69
2021/06/17 03:34:48;;;;;;;0.60;0.60;;;18.60;79.80;;;;;;5064061;28;20177;-69
2021/06/17 03:37:20;;;;;;;0.45;0.45;;;18.60;80.00;;;;;;5067101;28;20094;-69
2021/06/17 03:39:48;;;;;;;0.60;0.60;;;18.50;80.40;;;;;;5071446;28;20044;-69
2021/06/17 03:42:16;;;;;;;0.75;0.60;;;18.40;80.90;;;;;;5071591;28;20091;-69
2021/06/17 03:44:43;;;;;;;0.70;0.70;;;18.50;80.90;;;;;;5039915;28;20049;-69
2021/06/17 03:47:11;;;;;;;0.57;0.57;;;18.50;80.90;;;;;;5061606;28;20053;-69
2021/06/17 03:49:39;;;;;;;0.50;0.50;;;18.40;81.20;;;;;;5070957;28;20053;-69
2021/06/17 03:52:07;;;;;;;0.57;0.57;;;18.50;81.00;;;;;;5071524;28;20044;-69
2021/06/17 03:54:34;;;;;;;0.68;0.68;;;18.50;80.80;;;;;;5070791;28;20412;-68
2021/06/17 03:57:04;;;;;;;0.50;0.50;;;18.60;80.60;;;;;;5070913;28;20044;-69
2021/06/17 03:59:36;;;;;;;0.60;0.60;;;18.50;80.90;;;;;;5071269;28;20048;-69
2021/06/17 04:02:03;;;;;;;0.70;0.70;;;18.50;81.20;;;;;;5071447;28;20044;-69
2021/06/17 04:04:30;;;;;;;0.60;0.60;;;18.50;81.00;;;;;;5071031;28;20044;-69
2021/06/17 04:06:59;;;;;;;0.57;0.57;;;18.40;81.30;;;;;;5071012;28;20051;-69
2021/06/17 04:09:31;;;;;;;0.50;0.50;;;18.40;81.20;;;;;;5071296;28;20055;-69
2021/06/17 04:12:05;;;;;;;0.70;0.70;;;18.50;81.20;;;;;;5071234;28;20040;-69
2021/06/17 04:14:35;;;;;;;0.70;0.70;;;18.50;81.20;;;;;;5064451;28;20052;-69
2021/06/17 04:17:03;;;;;;;0.68;0.68;;;18.60;81.00;;;;;;5071023;28;20048;-68
2021/06/17 04:19:31;;;;;;;0.60;0.60;;;18.50;80.90;;;;;;5071422;28;20045;-68
2021/06/17 04:22:04;;;;;;;0.70;0.70;;;18.50;82.30;;;;;;5055685;28;20049;-69
2021/06/17 04:24:35;;;;;;;0.60;0.60;;;18.50;81.40;;;;;;5051141;28;20045;-69
2021/06/17 04:27:02;;;;;;;0.63;0.63;;;18.50;81.40;;;;;;5032727;28;20052;-69
2021/06/17 04:29:33;;;;;;;0.73;0.73;;;18.50;81.40;;;;;;5050839;28;20045;-69
2021/06/17 04:32:02;;;;;;;0.77;0.77;;;18.50;81.30;;;;;;5062763;28;20060;-69
2021/06/17 04:34:28;;;;;;;0.88;0.85;;;18.60;81.10;;;;;;5042232;28;20547;-69
2021/06/17 04:36:55;;;;;;;0.70;0.70;;;18.60;81.20;;;;;;5050224;28;20053;-68
2021/06/17 04:39:26;;;;;;;0.60;0.60;;;18.50;81.70;;;;;;5054783;28;20560;-69
2021/06/17 04:41:53;;;;;;;0.80;0.80;;;18.50;81.90;;;;;;5052179;28;20484;-69
2021/06/17 04:44:21;;;;;;;0.73;0.73;;;18.50;81.90;;;;;;5053489;28;20503;-69
2021/06/17 04:46:48;;;;;;;0.60;0.60;;;18.50;82.00;;;;;;5050996;28;20447;-69
2021/06/17 04:49:16;;;;;;;0.70;0.70;;;18.50;82.00;;;;;;5051986;28;20041;-69
2021/06/17 04:51:43;;;;;;;0.70;0.70;;;18.50;82.10;;;;;;5032119;28;20048;-69
2021/06/17 04:54:18;;;;;;;0.77;0.77;;;18.50;82.20;;;;;;5051871;28;20095;-69
2021/06/17 04:56:46;;;;;;;0.60;0.60;;;18.50;82.00;;;;;;5062799;28;20103;-68
2021/06/17 04:59:15;;;;;;;0.70;0.70;;;18.60;81.60;;;;;;5052825;28;20041;-69
2021/06/17 05:01:42;;;;;;;0.70;0.70;;;18.60;81.50;;;;;;5054005;28;20129;-69
2021/06/17 05:04:09;;;;;;;0.60;0.60;;;18.70;81.40;;;;;;5051621;28;20413;-69
2021/06/17 05:06:39;;;;;;;0.68;0.68;;;18.70;81.50;;;;;;5040027;28;20041;-69
2021/06/17 05:11:52;;;;;;;0.43;0.43;;;18.60;81.60;;;;;;5059027;28;20044;-68
2021/06/17 05:14:22;;;;;;;0.40;0.40;;;18.70;81.20;;;;;;5062532;28;20261;-69
2021/06/17 05:16:48;;;;;;;0.50;0.50;;;18.70;81.00;;;;;;5042336;28;20496;-69
2021/06/17 05:19:15;;;;;;;0.30;0.30;;;18.70;81.40;;;;;;5039409;28;20050;-68
2021/06/17 05:21:43;;;;;;;0.40;0.40;;;18.80;81.20;;;;;;5037676;28;20472;-69
2021/06/17 05:24:10;;;;;;;0.30;0.30;;;18.90;81.00;;;;;;5046842;28;20041;-69
2021/06/17 05:26:37;;;;;;;0.32;0.32;;;18.90;81.30;;;;;;5053768;28;20036;-69
2021/06/17 05:29:05;;;;;;;0.30;0.30;;;18.90;80.90;;;;;;5056419;28;20045;-69
2021/06/17 05:31:31;;;;;;;0.30;0.30;;;19.00;81.10;;;;;;5052237;28;20054;-68
2021/06/17 05:33:58;;;;;;;0.30;0.30;;;19.00;81.10;;;;;;5059708;28;20527;-68
2021/06/17 05:36:24;;;;;;;0.20;0.20;;;19.00;81.20;;;;;;5053890;28;20052;-69
2021/06/17 05:38:51;;;;;;;0.40;0.40;;;19.00;81.10;;;;;;5053597;28;20424;-68
2021/06/17 05:41:18;;;;;;;0.30;0.30;;;19.10;80.70;;;;;;5055211;28;20072;-69
2021/06/17 05:43:45;;;;;;;0.22;0.22;;;19.10;80.40;;;;;;5038454;28;20092;-69
2021/06/17 05:46:12;;;;;;;0.10;0.10;;;19.10;80.40;;;;;;5056881;28;20040;-69
2021/06/17 05:48:38;;;;;;;0.10;0.10;;;19.10;80.30;;;;;;5038063;28;20060;-69
2021/06/17 05:51:05;;;;;;;0.30;0.30;;;19.10;80.20;;;;;;5032959;28;20049;-69
2021/06/17 05:53:32;;;;;;;0.45;0.20;;;19.10;80.20;;;;;;5033350;28;20489;-69
2021/06/17 05:55:59;;;;;;;0.17;0.17;;;19.20;80.30;;;;;;5027895;28;20500;-68
2021/06/17 05:58:25;;;;;;;0.15;0.15;;;19.20;80.00;;;;;;5033624;28;20199;-69
2021/06/17 06:00:52;;;;;;;0.20;0.20;;;19.30;79.50;;;;;;5033801;28;20056;-68
2021/06/17 06:03:18;;;;;;;0.22;0.22;;;19.30;79.30;;;;;;5033098;28;20087;-69
2021/06/17 06:05:45;;;;;;;0.30;0.30;;;19.20;79.90;;;;;;5033229;28;20045;-67
2021/06/17 06:08:11;;;;;;;0.20;0.20;;;19.20;80.10;;;;;;5021882;28;20049;-68
2021/06/17 06:10:39;;;;;;;0.10;0.10;;;19.10;80.70;;;;;;5026977;28;20407;-68
2021/06/17 06:13:07;;;;;;;0.20;0.20;;;19.10;80.70;;;;;;5011186;28;20050;-68
2021/06/17 06:15:34;;;;;;;0.30;0.30;;;19.10;80.60;;;;;;5032405;28;20052;-69
2021/06/17 06:18:08;;;;;;;0.20;0.20;;;19.10;80.70;;;;;;5032210;28;20045;-69
2021/06/17 06:20:36;;;;;;;0.00;0.00;;;19.00;81.30;;;;;;5032206;28;20120;-68
2021/06/17 06:23:04;;;;;;;0.10;0.10;;;19.10;80.60;;;;;;5013103;28;20128;-68
2021/06/17 06:25:30;;;;;;;0.10;0.10;;;19.10;80.20;;;;;;5032203;28;20128;-68
2021/06/17 06:27:57;;;;;;;0.10;0.10;;;19.20;79.60;;;;;;5032440;28;20121;-68
2021/06/17 06:30:24;;;;;;;0.20;0.20;;;19.10;80.40;;;;;;5032251;28;20060;-68
2021/06/17 06:32:51;;;;;;;0.10;0.10;;;19.10;80.60;;;;;;5032941;28;20053;-68
2021/06/17 06:35:17;;;;;;;0.13;0.10;;;19.00;81.10;;;;;;5020958;28;20049;-68
2021/06/17 06:37:49;;;;;;;0.28;0.28;;;19.00;81.50;;;;;;5031166;28;20096;-68
2021/06/17 06:40:22;;;;;;;0.20;0.20;;;18.90;81.70;;;;;;5030243;28;20064;-68
2021/06/17 06:42:50;;;;;;;0.20;0.20;;;18.90;82.00;;;;;;5030023;28;20045;-68
2021/06/17 06:45:16;;;;;;;0.32;0.20;;;18.90;82.20;;;;;;5022739;28;20042;-68
2021/06/17 06:47:43;;;;;;;0.30;0.30;;;18.90;82.00;;;;;;5030549;28;20069;-68
2021/06/17 06:50:10;;;;;;;0.10;0.10;;;19.00;81.90;;;;;;5030197;28;20052;-68
2021/06/17 06:52:36;;;;;;;0.20;0.20;;;19.00;81.70;;;;;;5031466;28;20037;-68
2021/06/17 06:55:05;;;;;;;1.77;0.30;;;19.00;81.70;;;;;;5032229;28;20049;-68
2021/06/17 06:57:31;;;;;;;0.10;0.10;;;19.00;81.20;;;;;;5032274;28;20049;-68
2021/06/17 06:59:58;;;;;;;0.20;0.20;;;19.00;81.20;;;;;;5032209;28;20057;-68
2021/06/17 07:02:24;;;;;;;0.10;0.10;;;19.00;81.40;;;;;;5032541;28;20053;-68
2021/06/17 07:04:51;;;;;;;0.20;0.20;;;19.00;81.50;;;;;;5031774;28;20046;-68
2021/06/17 07:07:17;;;;;;;0.20;0.20;;;19.00;81.50;;;;;;5032268;28;20038;-68
2021/06/17 07:09:43;;;;;;;0.20;0.20;;;19.10;81.50;;;;;;5031882;28;20104;-68
2021/06/17 07:12:10;;;;;;;0.20;0.20;;;19.10;81.30;;;;;;5031707;28;20082;-66
2021/06/17 07:14:36;;;;;;;0.20;0.20;;;19.20;81.60;;;;;;5032030;28;20497;-68
2021/06/17 07:17:03;;;;;;;0.20;0.20;;;19.30;81.10;;;;;;5031854;28;20147;-68
2021/06/17 07:19:29;;;;;;;0.10;0.10;;;19.30;81.00;;;;;;5031719;28;20436;-68
2021/06/17 07:21:58;;;;;;;0.20;0.20;;;19.40;81.20;;;;;;5031791;28;20053;-66
2021/06/17 07:24:24;;;;;;;0.10;0.10;;;19.40;81.10;;;;;;5031978;28;20505;-68
2021/06/17 07:26:52;;;;;;;0.30;0.20;;;19.30;81.00;;;;;;5031788;28;20045;-68
2021/06/17 07:29:19;;;;;;;0.10;0.10;;;19.30;80.60;;;;;;5031475;28;20041;-68
2021/06/17 07:31:46;;;;;;;0.10;0.10;;;19.40;80.20;;;;;;5030452;28;20064;-68
2021/06/17 07:34:12;;;;;;;0.10;0.10;;;19.30;80.40;;;;;;5031412;28;20049;-68
2021/06/17 07:36:40;;;;;;;0.20;0.20;;;19.20;80.70;;;;;;5031726;28;20053;-68
2021/06/17 07:39:08;;;;;;;0.10;0.10;;;19.30;80.10;;;;;;5031771;28;20041;-68
2021/06/17 07:41:35;;;;;;;0.20;0.20;;;19.30;79.90;;;;;;5031315;28;20049;-68
2021/06/17 07:44:04;;;;;;;0.20;0.20;;;19.20;80.30;;;;;;5030925;28;20077;-68
2021/06/17 07:46:30;;;;;;;0.20;0.20;;;19.20;80.50;;;;;;5031819;28;20045;-68
2021/06/17 07:48:58;;;;;;;0.15;0.15;;;19.10;81.00;;;;;;5031298;28;20054;-68
2021/06/17 07:51:26;;;;;;;0.20;0.20;;;19.10;81.50;;;;;;5031731;28;20504;-68
2021/06/17 07:53:53;;;;;;;0.10;0.10;;;19.10;81.60;;;;;;5031630;28;20052;-68
2021/06/17 07:56:20;;;;;;;0.20;0.17;;;19.10;81.50;;;;;;5030841;28;20057;-68
2021/06/17 07:58:47;;;;;;;0.47;0.20;;;19.10;81.90;;;;;;5031454;28;20050;-68
2021/06/17 08:01:13;;;;;;;0.10;0.10;;;19.10;81.80;;;;;;5031485;28;20059;-68
2021/06/17 08:03:40;;;;;;;0.10;0.10;;;19.10;81.40;;;;;;5031277;28;20088;-68
2021/06/17 08:06:06;;;;;;;0.10;0.10;;;19.10;81.50;;;;;;5031213;28;20053;-68
2021/06/17 08:08:32;;;;;;;0.20;0.13;;;19.10;81.90;;;;;;5031326;28;20053;-68
2021/06/17 08:10:59;;;;;;;0.30;0.30;;;19.10;82.00;;;;;;5013558;28;20116;-68
2021/06/17 08:13:25;;;;;;;0.10;0.10;;;19.10;81.80;;;;;;5031049;28;20045;-66
2021/06/17 08:15:52;;;;;;;0.10;0.10;;;19.10;82.20;;;;;;5031393;28;20096;-68
2021/06/17 08:18:19;;;;;;;0.20;0.20;;;19.10;82.30;;;;;;5013209;28;20053;-68
2021/06/17 08:20:45;;;;;;;0.20;0.20;;;19.10;82.20;;;;;;5030822;28;20054;-68
2021/06/17 08:23:13;;;;;;;0.10;0.10;;;19.20;82.10;;;;;;5030914;28;20053;-68
2021/06/17 08:25:40;;;;;;;0.08;0.08;;;19.20;82.10;;;;;;5031284;28;20114;-68
2021/06/17 08:28:06;;;;;;;0.10;0.10;;;19.20;81.90;;;;;;5031025;28;20089;-68
2021/06/17 08:30:35;;;;;;;0.13;0.03;;;19.30;81.40;;;;;;5030228;28;20192;-68
2021/06/17 08:33:02;;;;;;;0.00;0.00;;;19.20;81.40;;;;;;5030977;28;20156;-68
2021/06/17 08:35:29;;;;;;;0.00;0.00;;;19.10;81.70;;;;;;5030770;28;20136;-68
2021/06/17 08:37:56;;;;;;;0.22;0.10;;;19.10;81.90;;;;;;5030871;28;20129;-68
2021/06/17 08:40:31;;;;;;;0.10;0.10;;;19.10;82.20;;;;;;5031163;28;20053;-68
2021/06/17 08:42:58;;;;;;;0.00;0.00;;;19.10;81.90;;;;;;5033467;28;20071;-68
2021/06/17 08:45:26;;;;;;;0.00;0.00;;;19.20;81.10;;;;;;5034807;28;20620;-68
2021/06/17 08:47:53;;;;;;;0.00;0.00;;;19.10;81.10;;;;;;5034729;28;20500;-68
2021/06/17 08:50:19;;;;;;;0.13;0.10;;;19.10;81.30;;;;;;5034819;28;20088;-68
2021/06/17 08:52:46;;;;;;;0.00;0.00;;;19.20;81.40;;;;;;5034265;28;20041;-68
2021/06/17 08:55:19;;;;;;;0.47;0.10;;;19.10;80.90;;;;;;5034617;28;20127;-68
2021/06/17 08:57:48;;;;;;;0.03;0.03;;;19.10;81.00;;;;;;5034971;28;20160;-68
2021/06/17 09:00:21;;;;;;;0.00;0.00;;;19.10;81.20;;;;;;5034401;28;20061;-68
2021/06/17 09:02:56;;;;;;;0.00;0.00;;;19.10;81.30;;;;;;5034369;28;20417;-66
2021/06/17 09:05:24;;;;;;;0.32;0.00;;;19.20;80.90;;;;;;5034249;28;20043;-68
2021/06/17 09:07:51;;;;;;;0.00;0.00;;;19.20;79.90;;;;;;5034581;28;20135;-68
2021/06/17 09:10:18;;;;;;;0.00;0.00;;;19.20;79.70;;;;;;5034376;28;20500;-68
2021/06/17 09:13:05;;;;;;;0.00;0.00;;;19.10;79.80;;;;;;5034359;28;20053;-68
2021/06/17 09:15:40;;;;;;;0.20;0.10;;;19.00;80.90;;;;;;5033943;28;20433;-68
2021/06/17 09:18:26;;;;;;;0.00;0.00;;;19.10;79.20;;;;;;5033991;28;20139;-68
2021/06/17 09:20:54;;;;;;;0.10;0.10;;;19.10;80.00;;;;;;5034218;28;20529;-68
2021/06/17 09:23:33;;;;;;;0.00;0.00;;;19.20;80.30;;;;;;5033752;28;20451;-68
2021/06/17 09:26:09;;;;;;;0.00;0.00;;;19.50;80.00;;;;;;5034372;28;20045;-68
2021/06/17 09:29:04;;;;;;;0.52;0.10;;;19.90;79.20;;;;;;5033584;28;20133;-68
2021/06/17 09:31:41;;;;;;;0.00;0.00;;;20.10;77.60;;;;;;5033476;28;20054;-68
2021/06/17 09:34:10;;;;;;;0.00;0.00;;;20.20;77.20;;;;;;5033512;28;20046;-66
2021/06/17 09:36:39;;;;;;;0.00;0.00;;;20.20;76.40;;;;;;5033850;28;20045;-68
2021/06/17 09:39:14;;;;;;;0.00;0.00;;;20.30;75.90;;;;;;5033735;28;20076;-68
2021/06/17 09:41:46;;;;;;;0.00;0.00;;;20.40;75.70;;;;;;5033985;28;20128;-68
2021/06/17 09:44:27;;;;;;;0.00;0.00;;;20.40;75.80;;;;;;5033385;28;20049;-68
2021/06/17 09:47:07;;;;;;;0.00;0.00;;;20.40;76.20;;;;;;5033629;28;20049;-68
2021/06/17 09:49:38;;;;;;;0.00;0.00;;;20.40;75.90;;;;;;5033744;28;20501;-68
2021/06/17 09:52:05;;;;;;;0.13;0.00;;;20.40;76.50;;;;;;5033360;28;20052;-68
2021/06/17 09:54:32;;;;;;;0.00;0.00;;;20.40;75.90;;;;;;5032663;28;20150;-68
2021/06/17 09:57:02;;;;;;;0.00;0.00;;;20.30;75.40;;;;;;5033593;28;20160;-68
2021/06/17 09:59:33;;;;;;;0.00;0.00;;;20.30;75.80;;;;;;5033391;28;20497;-66
2021/06/17 10:02:00;;;;;;;0.20;0.00;;;20.20;76.00;;;;;;5033123;28;20042;-68
2021/06/17 10:04:27;;;;;;;0.00;0.00;;;20.10;76.70;;;;;;5033575;28;20045;-68
2021/06/17 10:06:54;;;;;;;0.10;0.00;;;20.00;76.30;;;;;;5033083;28;20049;-68
2021/06/17 10:09:20;;;;;;;0.00;0.00;;;20.00;76.40;;;;;;5033178;28;20041;-68
2021/06/17 10:11:47;;;;;;;0.00;0.00;;;20.00;75.80;;;;;;5033159;28;20508;-68
2021/06/17 10:14:14;;;;;;;0.00;0.00;;;19.90;76.00;;;;;;5033363;28;20053;-68
2021/06/17 10:16:45;;;;;;;0.08;0.08;;;19.80;76.70;;;;;;5033129;28;20457;-68
2021/06/17 10:19:18;;;;;;;0.00;0.00;;;19.70;77.30;;;;;;5033010;28;20056;-68
2021/06/17 10:21:45;;;;;;;0.10;0.10;;;19.70;77.50;;;;;;5033359;28;20050;-68
2021/06/17 10:24:23;;;;;;;0.00;0.00;;;19.80;76.50;;;;;;5032878;28;20099;-68
2021/06/17 10:26:57;;;;;;;0.00;0.00;;;19.60;75.80;;;;;;5033026;28;20042;-68
2021/06/17 10:29:27;;;;;;;0.00;0.00;;;19.50;76.60;;;;;;5033044;28;20042;-68
2021/06/17 10:31:57;;;;;;;0.00;0.00;;;19.30;77.30;;;;;;5032559;28;20416;-68
2021/06/17 10:34:24;;;;;;;0.00;0.00;;;19.40;77.90;;;;;;5032597;28;20052;-68
2021/06/17 10:37:24;;;;;;;0.20;0.00;;;19.40;78.00;;;;;;5032911;28;20188;-68
2021/06/17 10:40:04;;;;;;;0.00;0.00;;;19.40;78.80;;;;;;5032866;28;20061;-68
2021/06/17 10:42:43;;;;;;;0.08;0.00;;;19.40;78.50;;;;;;5032063;28;20064;-68
2021/06/17 10:45:10;;;;;;;0.00;0.00;;;19.50;78.10;;;;;;5032698;28;20046;-68
2021/06/17 10:47:44;;;;;;;0.00;0.00;;;19.50;77.80;;;;;;5032379;28;20042;-68
2021/06/17 10:50:17;;;;;;;0.00;0.00;;;19.50;78.00;;;;;;5014446;28;20048;-68
2021/06/17 10:52:43;;;;;;;0.00;0.00;;;19.50;76.30;;;;;;5032050;28;20416;-68
2021/06/17 10:55:15;;;;;;;0.00;0.00;;;19.40;76.50;;;;;;5032364;28;20481;-68
2021/06/17 10:57:51;;;;;;;0.00;0.00;;;19.40;76.70;;;;;;5032591;28;20566;-68
2021/06/17 11:00:29;;;;;;;0.00;0.00;;;19.30;76.60;;;;;;5032264;28;20412;-68
2021/06/17 11:03:18;;;;;;;0.00;0.00;;;19.40;77.10;;;;;;5032108;28;20056;-68
2021/06/17 11:05:49;;;;;;;0.05;0.05;;;19.30;76.80;;;;;;5032143;28;20049;-68
2021/06/17 11:08:22;;;;;;;0.00;0.00;;;19.20;77.10;;;;;;5031785;28;20074;-68
2021/06/17 11:11:07;;;;;;;0.00;0.00;;;19.10;77.30;;;;;;5032200;28;20056;-68
2021/06/17 11:13:41;;;;;;;0.00;0.00;;;19.10;77.60;;;;;;5031885;28;20046;-68
2021/06/17 11:16:27;;;;;;;0.00;0.00;;;19.10;78.10;;;;;;5024978;28;20107;-68
2021/06/17 11:21:25;;;;;;;0.00;0.00;;;18.90;78.60;;;;;;5028595;28;20050;-69
2021/06/17 11:23:56;;;;;;;0.00;0.00;;;19.00;78.70;;;;;;5028425;28;20099;-68
2021/06/17 11:26:44;;;;;;;0.05;0.03;;;19.00;78.50;;;;;;5028792;28;20497;-68
2021/06/17 11:29:14;;;;;;;0.10;0.10;;;19.00;78.50;;;;;;5028579;28;20136;-68
2021/06/17 11:31:46;;;;;;;0.00;0.00;;;19.00;78.20;;;;;;5027946;28;20080;-68
2021/06/17 11:34:31;;;;;;;0.00;0.00;;;18.90;78.60;;;;;;5010739;28;20064;-68
2021/06/17 11:37:03;;;;;;;0.10;0.10;;;18.90;78.90;;;;;;5032663;28;20071;-69
2021/06/17 11:39:31;;;;;;;0.00;0.00;;;18.80;78.70;;;;;;5024939;28;20132;-68
2021/06/17 11:42:03;;;;;;;0.00;0.00;;;18.80;80.10;;;;;;5028181;28;20053;-69
2021/06/17 11:44:31;;;;;;;0.00;0.00;;;19.00;79.30;;;;;;5027819;28;20056;-68
2021/06/17 11:47:08;;;;;;;0.00;0.00;;;19.00;79.20;;;;;;5027931;28;20056;-68
2021/06/17 11:49:38;;;;;;;0.03;0.03;;;19.00;79.20;;;;;;5028407;28;20041;-68
2021/06/17 11:52:10;;;;;;;0.10;0.10;;;19.10;79.30;;;;;;5017728;28;20045;-69
2021/06/17 11:54:37;;;;;;;0.00;0.00;;;19.20;78.70;;;;;;5009901;28;20575;-69
2021/06/17 11:57:04;;;;;;;0.00;0.00;;;19.30;78.40;;;;;;5028617;28;20057;-68
2021/06/17 11:59:33;;;;;;;0.00;0.00;;;19.30;78.20;;;;;;5028364;28;20057;-68
2021/06/17 12:02:13;;;;;;;0.00;0.00;;;19.30;78.90;;;;;;5028254;28;20710;-68
2021/06/17 12:04:42;;;;;;;0.00;0.00;;;19.30;79.70;;;;;;5027804;28;20530;-69
2021/06/17 12:07:09;;;;;;;0.00;0.00;;;19.30;78.80;;;;;;5028062;28;20056;-69
2021/06/17 12:09:35;;;;;;;0.00;0.00;;;19.30;78.20;;;;;;5027575;28;20048;-66
2021/06/17 12:12:19;;;;;;;0.08;0.00;;;19.20;77.80;;;;;;5027787;28;20064;-68
2021/06/17 12:14:51;;;;;;;0.00;0.00;;;19.20;78.10;;;;;;5021090;28;20471;-68
2021/06/17 12:17:35;;;;;;;0.05;0.05;;;19.20;78.40;;;;;;5028365;28;20053;-69
2021/06/17 12:20:15;;;;;;;0.00;0.00;;;19.40;78.50;;;;;;5030955;28;20122;-68
2021/06/17 12:22:47;;;;;;;0.17;0.10;;;19.60;78.30;;;;;;5030950;28;20068;-68
2021/06/17 12:25:17;;;;;;;0.03;0.03;;;19.60;77.90;;;;;;5031510;28;20062;-68
2021/06/17 12:27:44;;;;;;;;;;;19.60;76.70;;;;;;5031954;28;20047;-67
2021/06/17 12:30:49;;;;;;;0.00;0.00;;;19.50;77.70;;;;;;5030564;28;19925;-68
2021/06/17 12:33:21;;;;;;;0.10;0.10;;;19.40;77.60;;;;;;5027396;28;20049;-69
2021/06/17 12:35:58;;;;;;;0.10;0.10;;;19.30;78.10;;;;;;5029771;28;20103;-69
2021/06/17 12:38:40;;;;;;;0.10;0.10;;;19.30;77.70;;;;;;5021295;28;20536;-68
2021/06/17 12:41:17;;;;;;;0.00;0.00;;;19.20;78.30;;;;;;5017002;28;20603;-69
2021/06/17 12:43:53;;;;;;;0.10;0.10;;;19.30;78.20;;;;;;5031284;28;20045;-66
2021/06/17 12:46:26;;;;;;;0.00;0.00;;;19.40;77.70;;;;;;5025318;28;20421;-68
2021/06/17 12:54:37;;;;;;;0.00;0.00;;;19.40;76.80;;;;;;5028491;28;20076;-68
2021/06/17 12:57:10;;;;;;;0.10;0.10;;;19.50;76.70;;;;;;5030755;28;20053;-68
2021/06/17 12:59:38;;;;;;;0.10;0.10;;;19.50;76.20;;;;;;5030925;28;20053;-69
2021/06/17 13:02:10;;;;;;;0.08;0.08;;;19.50;76.50;;;;;;5029812;28;20061;-68
2021/06/17 13:04:38;;;;;;;0.20;0.00;;;19.50;75.80;;;;;;5030594;28;20072;-68
2021/06/17 13:07:19;;;;;;;0.10;0.10;;;19.40;76.30;;;;;;5029180;28;20420;-68
2021/06/17 13:09:45;;;;;;;;;;;19.40;76.10;;;;;;5030892;28;20045;-68
2021/06/17 13:12:21;;;;;;;0.05;0.05;;;19.50;75.70;;;;;;5026332;28;20423;-68
2021/06/17 13:14:58;;;;;;;0.00;0.00;;;19.50;75.40;;;;;;5027326;28;20057;-68